<?xml version="1.0" encoding="UTF-8" standalone="no" ?>
<gpx xmlns="http://www.topografix.com/GPX/1/1" xmlns:xsi="http://www.w3.org/2001/XMLSchema-instance" xsi:schemaLocation="http://www.topografix.com/GPX/1/1 http://www.topografix.com/GPX/1/1/gpx.xsd" version="1.1" creator="VisuGPX - https://www.visugpx.com">
  <metadata>
    <name>De Meillerie à Salvigny</name>
    <desc><![CDATA[Randonnée en Haute-Savoie]]></desc>
  </metadata>
  <trk>
    <name><![CDATA[ACTIVE LOG: 30 JUL 2015 09:14]]></name>
    <trkseg>
      <trkpt lat="46.0753" lon="6.82893">
        <ele>865.8</ele>
        <time>2015-07-30T07:15:32Z</time>
      </trkpt>
      <trkpt lat="46.07538" lon="6.82926">
        <ele>902.82</ele>
        <time>2015-07-30T07:16:37Z</time>
      </trkpt>
      <trkpt lat="46.07565" lon="6.83013">
        <ele>905.7</ele>
        <time>2015-07-30T07:17:42Z</time>
      </trkpt>
      <trkpt lat="46.07562" lon="6.83127">
        <ele>908.58</ele>
        <time>2015-07-30T07:18:47Z</time>
      </trkpt>
      <trkpt lat="46.07569" lon="6.83202">
        <ele>909.54</ele>
        <time>2015-07-30T07:19:52Z</time>
      </trkpt>
      <trkpt lat="46.07575" lon="6.83201">
        <ele>909.54</ele>
        <time>2015-07-30T07:20:57Z</time>
      </trkpt>
      <trkpt lat="46.07633" lon="6.83195">
        <ele>917.72</ele>
        <time>2015-07-30T07:22:02Z</time>
      </trkpt>
      <trkpt lat="46.0767" lon="6.83257">
        <ele>929.25</ele>
        <time>2015-07-30T07:23:07Z</time>
      </trkpt>
      <trkpt lat="46.07695" lon="6.8332">
        <ele>938.38</ele>
        <time>2015-07-30T07:24:12Z</time>
      </trkpt>
      <trkpt lat="46.07733" lon="6.83373">
        <ele>948.96</ele>
        <time>2015-07-30T07:25:17Z</time>
      </trkpt>
      <trkpt lat="46.07778" lon="6.83438">
        <ele>954.25</ele>
        <time>2015-07-30T07:26:22Z</time>
      </trkpt>
      <trkpt lat="46.07824" lon="6.83506">
        <ele>961.94</ele>
        <time>2015-07-30T07:27:27Z</time>
      </trkpt>
      <trkpt lat="46.07883" lon="6.83543">
        <ele>968.67</ele>
        <time>2015-07-30T07:28:32Z</time>
      </trkpt>
      <trkpt lat="46.07935" lon="6.83565">
        <ele>974.91</ele>
        <time>2015-07-30T07:29:37Z</time>
      </trkpt>
      <trkpt lat="46.07931" lon="6.83573">
        <ele>975.88</ele>
        <time>2015-07-30T07:30:42Z</time>
      </trkpt>
      <trkpt lat="46.07979" lon="6.83609">
        <ele>980.68</ele>
        <time>2015-07-30T07:31:47Z</time>
      </trkpt>
      <trkpt lat="46.07999" lon="6.83646">
        <ele>990.3</ele>
        <time>2015-07-30T07:32:52Z</time>
      </trkpt>
      <trkpt lat="46.08058" lon="6.83667">
        <ele>998.95</ele>
        <time>2015-07-30T07:33:57Z</time>
      </trkpt>
      <trkpt lat="46.08096" lon="6.83692">
        <ele>1008.56</ele>
        <time>2015-07-30T07:35:02Z</time>
      </trkpt>
      <trkpt lat="46.08141" lon="6.83742">
        <ele>1012.41</ele>
        <time>2015-07-30T07:36:07Z</time>
      </trkpt>
      <trkpt lat="46.08211" lon="6.83765">
        <ele>1017.69</ele>
        <time>2015-07-30T07:37:12Z</time>
      </trkpt>
      <trkpt lat="46.08276" lon="6.83762">
        <ele>1016.25</ele>
        <time>2015-07-30T07:38:17Z</time>
      </trkpt>
      <trkpt lat="46.08332" lon="6.83739">
        <ele>1017.69</ele>
        <time>2015-07-30T07:39:22Z</time>
      </trkpt>
      <trkpt lat="46.08328" lon="6.83759">
        <ele>1018.17</ele>
        <time>2015-07-30T07:40:27Z</time>
      </trkpt>
      <trkpt lat="46.08382" lon="6.83816">
        <ele>1018.17</ele>
        <time>2015-07-30T07:41:32Z</time>
      </trkpt>
      <trkpt lat="46.08425" lon="6.83854">
        <ele>1018.17</ele>
        <time>2015-07-30T07:42:37Z</time>
      </trkpt>
      <trkpt lat="46.0847" lon="6.83884">
        <ele>1018.65</ele>
        <time>2015-07-30T07:43:42Z</time>
      </trkpt>
      <trkpt lat="46.0855" lon="6.83879">
        <ele>1021.54</ele>
        <time>2015-07-30T07:44:47Z</time>
      </trkpt>
      <trkpt lat="46.08572" lon="6.83848">
        <ele>1025.38</ele>
        <time>2015-07-30T07:45:52Z</time>
      </trkpt>
      <trkpt lat="46.0859" lon="6.83858">
        <ele>1025.38</ele>
        <time>2015-07-30T07:46:57Z</time>
      </trkpt>
      <trkpt lat="46.08634" lon="6.83854">
        <ele>1027.31</ele>
        <time>2015-07-30T07:48:02Z</time>
      </trkpt>
      <trkpt lat="46.08659" lon="6.83868">
        <ele>1031.15</ele>
        <time>2015-07-30T07:49:07Z</time>
      </trkpt>
      <trkpt lat="46.08689" lon="6.83894">
        <ele>1030.67</ele>
        <time>2015-07-30T07:50:12Z</time>
      </trkpt>
      <trkpt lat="46.08753" lon="6.83916">
        <ele>1029.71</ele>
        <time>2015-07-30T07:51:17Z</time>
      </trkpt>
      <trkpt lat="46.08786" lon="6.83933">
        <ele>1035.48</ele>
        <time>2015-07-30T07:52:22Z</time>
      </trkpt>
      <trkpt lat="46.08799" lon="6.83942">
        <ele>1035.96</ele>
        <time>2015-07-30T07:53:27Z</time>
      </trkpt>
      <trkpt lat="46.08837" lon="6.83973">
        <ele>1035</ele>
        <time>2015-07-30T07:54:32Z</time>
      </trkpt>
      <trkpt lat="46.08896" lon="6.84015">
        <ele>1030.67</ele>
        <time>2015-07-30T07:55:37Z</time>
      </trkpt>
      <trkpt lat="46.08914" lon="6.84016">
        <ele>1028.75</ele>
        <time>2015-07-30T07:56:42Z</time>
      </trkpt>
      <trkpt lat="46.08922" lon="6.8404">
        <ele>1031.15</ele>
        <time>2015-07-30T07:57:47Z</time>
      </trkpt>
      <trkpt lat="46.08942" lon="6.84007">
        <ele>1033.55</ele>
        <time>2015-07-30T07:58:52Z</time>
      </trkpt>
      <trkpt lat="46.08954" lon="6.84071">
        <ele>1033.55</ele>
        <time>2015-07-30T07:59:57Z</time>
      </trkpt>
    </trkseg>
  </trk>
</gpx>